To NAV CANADA Home Page Login to a new session Search on AWWS site Disclaimer Vers la page française équivalente Tips FAQ What's new on the site To the Forecasts and Observations / NOTAM section To "File a Flight Plan" website Publications and other links Update of the User's profile FIC Telephone Numbers My Weather Data Folder Route Weather Data Regional Weather Data Local Weather Data To the Forecasts and Observations / NOTAM section
Request Generated 08/06/2020 at 19:09:38 UTC . Weather information available at that time is displayed.

METAR/TAF

TORONTO/OSHAWA EXECUTIVE AIRPORT/ON    (show WxCam)

METAR CYOO 061900Z AUTO 17008KT 150V220 9SM CLR 23/11 A3013 RMK SLP206 DENSITY ALT 1200FT=
METAR CYOO 061800Z AUTO 18009KT 9SM CLR 22/10 A3014 RMK SLP209 DENSITY ALT 1100FT=
METAR CYOO 061700Z AUTO 19007KT 150V220 9SM FEW055 22/11 A3015 RMK TS/LTNG TEMPO UNAVBL SLP211 DENSITY ALT 1100FT=

TAF CYOO 061338Z 0614/0702 VRB03KT P6SM SKC
FM061600 19006KT P6SM FEW050
BECMG 0623/0701 VRB03KT
RMK FCST BASED ON AUTO OBS. NXT FCST BY 062000Z=
Your time UTC time
Weather data provided by Environment Canada and NAV CANADA